sensor_id;sensor_type;location;lat;lon;timestamp;P1;durP1;ratioP1;P2;durP2;ratioP2
30472;SDS011;17263;48.160;11.452;2022-10-19T00:01:52;10.27;;;6.33;;
30472;SDS011;17263;48.160;11.452;2022-10-19T00:04:18;12.40;;;6.50;;
30472;SDS011;17263;48.160;11.452;2022-10-19T00:06:44;8.47;;;5.97;;
30472;SDS011;17263;48.160;11.452;2022-10-19T00:09:11;7.63;;;6.83;;
30472;SDS011;17263;48.160;11.452;2022-10-19T00:11:43;8.47;;;6.87;;
30472;SDS011;17263;48.160;11.452;2022-10-19T00:14:12;8.33;;;6.30;;
30472;SDS011;17263;48.160;11.452;2022-10-19T00:16:41;7.33;;;6.37;;
30472;SDS011;17263;48.160;11.452;2022-10-19T00:19:10;8.97;;;6.27;;
30472;SDS011;17263;48.160;11.452;2022-10-19T00:21:39;7.10;;;6.30;;
30472;SDS011;17263;48.160;11.452;2022-10-19T00:24:06;7.27;;;6.57;;
30472;SDS011;17263;48.160;11.452;2022-10-19T00:26:33;7.80;;;6.57;;
30472;SDS011;17263;48.160;11.452;2022-10-19T00:28:59;7.93;;;6.37;;
30472;SDS011;17263;48.160;11.452;2022-10-19T00:31:25;9.60;;;6.47;;
30472;SDS011;17263;48.160;11.452;2022-10-19T00:33:52;7.03;;;6.27;;
30472;SDS011;17263;48.160;11.452;2022-10-19T00:36:24;7.03;;;6.33;;
30472;SDS011;17263;48.160;11.452;2022-10-19T00:39:02;7.20;;;6.50;;
30472;SDS011;17263;48.160;11.452;2022-10-19T00:41:31;7.30;;;6.20;;
30472;SDS011;17263;48.160;11.452;2022-10-19T00:43:59;8.57;;;6.63;;
30472;SDS011;17263;48.160;11.452;2022-10-19T00:46:39;9.10;;;6.40;;
30472;SDS011;17263;48.160;11.452;2022-10-19T00:51:52;6.90;;;6.07;;
30472;SDS011;17263;48.160;11.452;2022-10-19T00:54:20;6.80;;;6.10;;
30472;SDS011;17263;48.160;11.452;2022-10-19T00:56:47;8.30;;;5.87;;
30472;SDS011;17263;48.160;11.452;2022-10-19T00:59:17;6.87;;;6.17;;
30472;SDS011;17263;48.160;11.452;2022-10-19T01:01:45;8.47;;;6.00;;
30472;SDS011;17263;48.160;11.452;2022-10-19T01:04:12;6.40;;;5.80;;
30472;SDS011;17263;48.160;11.452;2022-10-19T01:06:39;10.57;;;6.40;;
30472;SDS011;17263;48.160;11.452;2022-10-19T01:09:06;9.53;;;5.77;;
30472;SDS011;17263;48.160;11.452;2022-10-19T01:11:38;7.60;;;6.47;;
30472;SDS011;17263;48.160;11.452;2022-10-19T01:14:20;7.30;;;6.60;;
30472;SDS011;17263;48.160;11.452;2022-10-19T01:34:03;8.67;;;6.50;;
30472;SDS011;17263;48.160;11.452;2022-10-19T01:39:02;7.67;;;6.47;;
30472;SDS011;17263;48.160;11.452;2022-10-19T01:41:48;7.10;;;6.10;;
30472;SDS011;17263;48.160;11.452;2022-10-19T01:47:14;7.03;;;6.33;;
30472;SDS011;17263;48.160;11.452;2022-10-19T01:49:58;9.30;;;6.77;;
30472;SDS011;17263;48.160;11.452;2022-10-19T01:52:30;9.10;;;7.03;;
30472;SDS011;17263;48.160;11.452;2022-10-19T01:54:58;7.97;;;7.20;;
30472;SDS011;17263;48.160;11.452;2022-10-19T01:57:31;11.33;;;7.87;;
30472;SDS011;17263;48.160;11.452;2022-10-19T01:59:59;9.37;;;8.27;;
30472;SDS011;17263;48.160;11.452;2022-10-19T02:02:32;10.97;;;8.73;;
30472;SDS011;17263;48.160;11.452;2022-10-19T02:05:02;11.90;;;9.47;;
30472;SDS011;17263;48.160;11.452;2022-10-19T02:07:29;11.37;;;10.17;;
30472;SDS011;17263;48.160;11.452;2022-10-19T02:09:57;11.80;;;9.80;;
30472;SDS011;17263;48.160;11.452;2022-10-19T02:12:23;13.07;;;10.77;;
30472;SDS011;17263;48.160;11.452;2022-10-19T02:14:52;11.50;;;10.27;;
30472;SDS011;17263;48.160;11.452;2022-10-19T02:17:27;10.60;;;9.60;;
30472;SDS011;17263;48.160;11.452;2022-10-19T02:20:00;13.37;;;9.73;;
30472;SDS011;17263;48.160;11.452;2022-10-19T02:22:27;11.40;;;10.30;;
30472;SDS011;17263;48.160;11.452;2022-10-19T02:24:53;11.13;;;9.90;;
30472;SDS011;17263;48.160;11.452;2022-10-19T02:27:19;10.70;;;9.63;;
30472;SDS011;17263;48.160;11.452;2022-10-19T02:29:46;13.13;;;9.90;;
30472;SDS011;17263;48.160;11.452;2022-10-19T02:32:12;15.47;;;9.73;;
30472;SDS011;17263;48.160;11.452;2022-10-19T02:34:38;11.73;;;9.13;;
30472;SDS011;17263;48.160;11.452;2022-10-19T02:37:04;10.27;;;9.23;;
30472;SDS011;17263;48.160;11.452;2022-10-19T02:39:31;10.53;;;9.57;;
30472;SDS011;17263;48.160;11.452;2022-10-19T02:42:09;11.90;;;9.70;;
30472;SDS011;17263;48.160;11.452;2022-10-19T02:44:48;10.00;;;9.00;;
30472;SDS011;17263;48.160;11.452;2022-10-19T02:47:18;13.20;;;9.60;;
30472;SDS011;17263;48.160;11.452;2022-10-19T02:49:49;12.20;;;9.70;;
30472;SDS011;17263;48.160;11.452;2022-10-19T02:52:17;11.57;;;9.30;;
30472;SDS011;17263;48.160;11.452;2022-10-19T02:54:43;13.47;;;10.30;;
30472;SDS011;17263;48.160;11.452;2022-10-19T02:57:23;12.00;;;10.80;;
30472;SDS011;17263;48.160;11.452;2022-10-19T02:59:50;16.03;;;10.70;;
30472;SDS011;17263;48.160;11.452;2022-10-19T03:02:17;13.03;;;11.33;;
30472;SDS011;17263;48.160;11.452;2022-10-19T03:04:44;11.90;;;10.53;;
30472;SDS011;17263;48.160;11.452;2022-10-19T03:07:14;12.40;;;10.87;;
30472;SDS011;17263;48.160;11.452;2022-10-19T03:09:42;13.43;;;11.00;;
30472;SDS011;17263;48.160;11.452;2022-10-19T03:12:08;12.30;;;11.03;;
30472;SDS011;17263;48.160;11.452;2022-10-19T03:14:35;12.93;;;11.60;;
30472;SDS011;17263;48.160;11.452;2022-10-19T03:17:01;13.20;;;11.40;;
30472;SDS011;17263;48.160;11.452;2022-10-19T03:19:28;11.60;;;10.53;;
30472;SDS011;17263;48.160;11.452;2022-10-19T03:21:54;14.10;;;12.00;;
30472;SDS011;17263;48.160;11.452;2022-10-19T03:24:20;13.63;;;11.77;;
30472;SDS011;17263;48.160;11.452;2022-10-19T03:26:46;15.47;;;11.47;;
30472;SDS011;17263;48.160;11.452;2022-10-19T03:29:12;13.67;;;12.27;;
30472;SDS011;17263;48.160;11.452;2022-10-19T03:31:39;13.93;;;12.50;;
30472;SDS011;17263;48.160;11.452;2022-10-19T03:34:05;13.43;;;11.93;;
30472;SDS011;17263;48.160;11.452;2022-10-19T03:36:32;15.73;;;13.90;;
30472;SDS011;17263;48.160;11.452;2022-10-19T03:39:00;15.23;;;13.67;;
30472;SDS011;17263;48.160;11.452;2022-10-19T03:41:33;16.43;;;14.83;;
30472;SDS011;17263;48.160;11.452;2022-10-19T03:44:00;15.77;;;14.13;;
30472;SDS011;17263;48.160;11.452;2022-10-19T03:46:26;15.10;;;13.60;;
30472;SDS011;17263;48.160;11.452;2022-10-19T03:48:52;17.90;;;15.77;;
30472;SDS011;17263;48.160;11.452;2022-10-19T03:51:20;17.73;;;15.60;;
30472;SDS011;17263;48.160;11.452;2022-10-19T03:53:51;17.27;;;15.47;;
30472;SDS011;17263;48.160;11.452;2022-10-19T03:56:23;16.83;;;15.03;;
30472;SDS011;17263;48.160;11.452;2022-10-19T03:58:50;15.80;;;14.30;;
30472;SDS011;17263;48.160;11.452;2022-10-19T04:01:22;16.70;;;15.00;;
30472;SDS011;17263;48.160;11.452;2022-10-19T04:03:53;16.07;;;14.47;;
30472;SDS011;17263;48.160;11.452;2022-10-19T04:06:22;16.90;;;15.20;;
30472;SDS011;17263;48.160;11.452;2022-10-19T04:08:53;16.50;;;14.80;;
30472;SDS011;17263;48.160;11.452;2022-10-19T04:11:20;17.23;;;15.43;;
30472;SDS011;17263;48.160;11.452;2022-10-19T04:13:49;19.90;;;17.80;;
30472;SDS011;17263;48.160;11.452;2022-10-19T04:16:15;17.77;;;16.07;;
30472;SDS011;17263;48.160;11.452;2022-10-19T04:18:42;16.83;;;15.13;;
30472;SDS011;17263;48.160;11.452;2022-10-19T04:21:17;17.60;;;15.43;;
30472;SDS011;17263;48.160;11.452;2022-10-19T04:23:52;16.43;;;14.73;;
30472;SDS011;17263;48.160;11.452;2022-10-19T04:26:24;16.43;;;14.77;;
30472;SDS011;17263;48.160;11.452;2022-10-19T04:28:50;19.53;;;17.17;;
30472;SDS011;17263;48.160;11.452;2022-10-19T04:31:17;19.13;;;17.03;;
30472;SDS011;17263;48.160;11.452;2022-10-19T04:33:43;17.70;;;16.00;;
30472;SDS011;17263;48.160;11.452;2022-10-19T04:36:10;19.33;;;17.40;;
30472;SDS011;17263;48.160;11.452;2022-10-19T04:38:37;19.07;;;16.57;;
30472;SDS011;17263;48.160;11.452;2022-10-19T04:41:04;19.07;;;16.40;;
30472;SDS011;17263;48.160;11.452;2022-10-19T04:43:35;18.57;;;16.77;;
30472;SDS011;17263;48.160;11.452;2022-10-19T04:46:11;19.27;;;17.23;;
30472;SDS011;17263;48.160;11.452;2022-10-19T04:48:39;19.40;;;17.37;;
30472;SDS011;17263;48.160;11.452;2022-10-19T04:51:06;18.17;;;16.33;;
30472;SDS011;17263;48.160;11.452;2022-10-19T04:53:33;18.43;;;16.60;;
30472;SDS011;17263;48.160;11.452;2022-10-19T04:55:59;17.57;;;15.83;;
30472;SDS011;17263;48.160;11.452;2022-10-19T04:58:29;19.37;;;17.17;;
30472;SDS011;17263;48.160;11.452;2022-10-19T05:00:55;18.20;;;16.27;;
30472;SDS011;17263;48.160;11.452;2022-10-19T05:03:21;20.40;;;17.43;;
30472;SDS011;17263;48.160;11.452;2022-10-19T05:05:47;20.27;;;15.80;;
30472;SDS011;17263;48.160;11.452;2022-10-19T05:08:15;18.50;;;16.67;;
30472;SDS011;17263;48.160;11.452;2022-10-19T05:10:41;17.43;;;15.73;;
30472;SDS011;17263;48.160;11.452;2022-10-19T05:13:07;17.30;;;15.70;;
30472;SDS011;17263;48.160;11.452;2022-10-19T05:15:33;17.43;;;15.07;;
30472;SDS011;17263;48.160;11.452;2022-10-19T05:17:59;17.83;;;15.93;;
30472;SDS011;17263;48.160;11.452;2022-10-19T05:20:25;17.20;;;14.73;;
30472;SDS011;17263;48.160;11.452;2022-10-19T05:22:51;16.87;;;14.93;;
30472;SDS011;17263;48.160;11.452;2022-10-19T05:25:17;17.20;;;15.40;;
30472;SDS011;17263;48.160;11.452;2022-10-19T05:27:43;16.77;;;15.13;;
30472;SDS011;17263;48.160;11.452;2022-10-19T05:30:10;17.57;;;15.77;;
30472;SDS011;17263;48.160;11.452;2022-10-19T05:32:38;17.60;;;15.90;;
30472;SDS011;17263;48.160;11.452;2022-10-19T05:35:04;18.80;;;16.80;;
30472;SDS011;17263;48.160;11.452;2022-10-19T05:37:30;16.77;;;15.27;;
30472;SDS011;17263;48.160;11.452;2022-10-19T05:39:56;17.97;;;16.27;;
30472;SDS011;17263;48.160;11.452;2022-10-19T05:42:22;17.67;;;14.73;;
30472;SDS011;17263;48.160;11.452;2022-10-19T05:44:48;15.93;;;14.33;;
30472;SDS011;17263;48.160;11.452;2022-10-19T05:47:14;15.50;;;13.90;;
30472;SDS011;17263;48.160;11.452;2022-10-19T05:49:40;16.27;;;14.67;;
30472;SDS011;17263;48.160;11.452;2022-10-19T05:52:06;16.43;;;14.73;;
30472;SDS011;17263;48.160;11.452;2022-10-19T05:54:32;15.93;;;14.43;;
30472;SDS011;17263;48.160;11.452;2022-10-19T05:57:00;15.80;;;14.20;;
30472;SDS011;17263;48.160;11.452;2022-10-19T05:59:26;15.70;;;14.20;;
30472;SDS011;17263;48.160;11.452;2022-10-19T06:01:53;16.60;;;15.00;;
30472;SDS011;17263;48.160;11.452;2022-10-19T06:04:19;17.00;;;15.20;;
30472;SDS011;17263;48.160;11.452;2022-10-19T06:06:45;16.20;;;14.60;;
30472;SDS011;17263;48.160;11.452;2022-10-19T06:09:11;14.97;;;13.47;;
30472;SDS011;17263;48.160;11.452;2022-10-19T06:11:38;15.53;;;14.00;;
30472;SDS011;17263;48.160;11.452;2022-10-19T06:14:10;16.30;;;14.60;;
30472;SDS011;17263;48.160;11.452;2022-10-19T06:16:38;16.63;;;14.93;;
30472;SDS011;17263;48.160;11.452;2022-10-19T06:19:04;18.00;;;15.43;;
30472;SDS011;17263;48.160;11.452;2022-10-19T06:21:31;16.97;;;15.33;;
30472;SDS011;17263;48.160;11.452;2022-10-19T06:24:02;18.17;;;16.27;;
30472;SDS011;17263;48.160;11.452;2022-10-19T06:26:30;21.23;;;16.83;;
30472;SDS011;17263;48.160;11.452;2022-10-19T06:28:58;18.97;;;16.97;;
30472;SDS011;17263;48.160;11.452;2022-10-19T06:31:25;20.80;;;17.87;;
30472;SDS011;17263;48.160;11.452;2022-10-19T06:33:52;19.70;;;17.53;;
30472;SDS011;17263;48.160;11.452;2022-10-19T06:36:22;20.07;;;18.03;;
30472;SDS011;17263;48.160;11.452;2022-10-19T06:38:50;18.87;;;16.57;;
30472;SDS011;17263;48.160;11.452;2022-10-19T06:41:17;17.13;;;15.27;;
30472;SDS011;17263;48.160;11.452;2022-10-19T06:43:48;18.23;;;16.33;;
30472;SDS011;17263;48.160;11.452;2022-10-19T06:46:19;17.70;;;15.83;;
30472;SDS011;17263;48.160;11.452;2022-10-19T06:51:24;19.13;;;15.70;;
30472;SDS011;17263;48.160;11.452;2022-10-19T06:53:52;18.13;;;16.30;;
30472;SDS011;17263;48.160;11.452;2022-10-19T06:56:19;19.17;;;16.77;;
30472;SDS011;17263;48.160;11.452;2022-10-19T06:58:45;17.83;;;16.13;;
30472;SDS011;17263;48.160;11.452;2022-10-19T07:01:11;18.47;;;16.03;;
30472;SDS011;17263;48.160;11.452;2022-10-19T07:03:38;17.90;;;16.00;;
30472;SDS011;17263;48.160;11.452;2022-10-19T07:06:06;17.83;;;15.50;;
30472;SDS011;17263;48.160;11.452;2022-10-19T07:08:34;17.77;;;15.97;;
30472;SDS011;17263;48.160;11.452;2022-10-19T07:11:03;17.77;;;16.17;;
30472;SDS011;17263;48.160;11.452;2022-10-19T07:13:31;18.27;;;16.37;;
30472;SDS011;17263;48.160;11.452;2022-10-19T07:15:58;19.33;;;16.00;;
30472;SDS011;17263;48.160;11.452;2022-10-19T07:18:28;18.23;;;16.17;;
30472;SDS011;17263;48.160;11.452;2022-10-19T07:20:57;18.67;;;16.67;;
30472;SDS011;17263;48.160;11.452;2022-10-19T07:23:25;19.33;;;16.87;;
30472;SDS011;17263;48.160;11.452;2022-10-19T07:25:53;21.43;;;18.03;;
30472;SDS011;17263;48.160;11.452;2022-10-19T07:28:25;19.83;;;17.77;;
30472;SDS011;17263;48.160;11.452;2022-10-19T07:30:51;20.23;;;18.00;;
30472;SDS011;17263;48.160;11.452;2022-10-19T07:33:17;21.43;;;16.77;;
30472;SDS011;17263;48.160;11.452;2022-10-19T07:35:44;20.33;;;18.33;;
30472;SDS011;17263;48.160;11.452;2022-10-19T07:38:10;20.87;;;17.57;;
30472;SDS011;17263;48.160;11.452;2022-10-19T07:40:36;22.03;;;19.80;;
30472;SDS011;17263;48.160;11.452;2022-10-19T07:43:02;22.00;;;19.63;;
30472;SDS011;17263;48.160;11.452;2022-10-19T07:45:28;23.00;;;19.57;;
30472;SDS011;17263;48.160;11.452;2022-10-19T07:47:54;22.63;;;19.43;;
30472;SDS011;17263;48.160;11.452;2022-10-19T07:50:20;25.43;;;19.97;;
30472;SDS011;17263;48.160;11.452;2022-10-19T07:52:50;25.93;;;21.23;;
30472;SDS011;17263;48.160;11.452;2022-10-19T07:55:16;23.53;;;20.90;;
30472;SDS011;17263;48.160;11.452;2022-10-19T07:57:45;28.03;;;20.43;;
30472;SDS011;17263;48.160;11.452;2022-10-19T08:00:13;21.90;;;19.50;;
30472;SDS011;17263;48.160;11.452;2022-10-19T08:02:40;23.53;;;20.73;;
30472;SDS011;17263;48.160;11.452;2022-10-19T08:05:07;23.47;;;20.53;;
30472;SDS011;17263;48.160;11.452;2022-10-19T08:07:33;23.97;;;21.43;;
30472;SDS011;17263;48.160;11.452;2022-10-19T08:09:59;24.40;;;21.77;;
30472;SDS011;17263;48.160;11.452;2022-10-19T08:12:25;23.20;;;20.63;;
30472;SDS011;17263;48.160;11.452;2022-10-19T08:14:52;23.77;;;20.30;;
30472;SDS011;17263;48.160;11.452;2022-10-19T08:17:18;21.57;;;19.13;;
30472;SDS011;17263;48.160;11.452;2022-10-19T08:19:45;21.77;;;19.33;;
30472;SDS011;17263;48.160;11.452;2022-10-19T08:22:11;20.83;;;18.70;;
30472;SDS011;17263;48.160;11.452;2022-10-19T08:24:37;23.73;;;19.83;;
30472;SDS011;17263;48.160;11.452;2022-10-19T08:27:03;20.60;;;18.33;;
30472;SDS011;17263;48.160;11.452;2022-10-19T08:29:29;21.00;;;18.63;;
30472;SDS011;17263;48.160;11.452;2022-10-19T08:31:55;22.07;;;19.90;;
30472;SDS011;17263;48.160;11.452;2022-10-19T08:34:21;23.47;;;20.97;;
30472;SDS011;17263;48.160;11.452;2022-10-19T08:36:47;20.13;;;18.03;;
30472;SDS011;17263;48.160;11.452;2022-10-19T08:39:13;24.73;;;19.73;;
30472;SDS011;17263;48.160;11.452;2022-10-19T08:41:56;20.33;;;18.20;;
30472;SDS011;17263;48.160;11.452;2022-10-19T08:47:04;22.97;;;18.90;;
30472;SDS011;17263;48.160;11.452;2022-10-19T08:49:53;23.70;;;19.80;;
30472;SDS011;17263;48.160;11.452;2022-10-19T08:52:21;22.27;;;20.13;;
30472;SDS011;17263;48.160;11.452;2022-10-19T08:54:55;20.97;;;18.80;;
30472;SDS011;17263;48.160;11.452;2022-10-19T09:00:15;19.67;;;17.60;;
30472;SDS011;17263;48.160;11.452;2022-10-19T09:03:10;18.73;;;16.70;;
30472;SDS011;17263;48.160;11.452;2022-10-19T09:05:44;18.77;;;16.87;;
30472;SDS011;17263;48.160;11.452;2022-10-19T09:08:11;18.73;;;16.47;;
30472;SDS011;17263;48.160;11.452;2022-10-19T09:10:38;18.23;;;16.43;;
30472;SDS011;17263;48.160;11.452;2022-10-19T09:13:09;18.90;;;16.90;;
30472;SDS011;17263;48.160;11.452;2022-10-19T09:15:50;18.10;;;16.30;;
30472;SDS011;17263;48.160;11.452;2022-10-19T09:18:18;16.60;;;14.90;;
30472;SDS011;17263;48.160;11.452;2022-10-19T09:20:57;20.03;;;16.97;;
30472;SDS011;17263;48.160;11.452;2022-10-19T09:23:46;17.87;;;15.97;;
30472;SDS011;17263;48.160;11.452;2022-10-19T09:26:17;20.10;;;17.80;;
30472;SDS011;17263;48.160;11.452;2022-10-19T09:31:39;20.83;;;17.97;;
30472;SDS011;17263;48.160;11.452;2022-10-19T09:34:11;22.63;;;18.87;;
30472;SDS011;17263;48.160;11.452;2022-10-19T09:36:51;22.57;;;20.27;;
30472;SDS011;17263;48.160;11.452;2022-10-19T09:39:26;22.53;;;20.23;;
30472;SDS011;17263;48.160;11.452;2022-10-19T09:42:09;21.83;;;19.53;;
30472;SDS011;17263;48.160;11.452;2022-10-19T09:44:42;24.40;;;19.27;;
30472;SDS011;17263;48.160;11.452;2022-10-19T09:47:16;23.07;;;19.30;;
30472;SDS011;17263;48.160;11.452;2022-10-19T09:52:40;20.67;;;17.67;;
30472;SDS011;17263;48.160;11.452;2022-10-19T09:57:47;18.93;;;17.03;;
30472;SDS011;17263;48.160;11.452;2022-10-19T10:02:52;18.27;;;16.33;;
30472;SDS011;17263;48.160;11.452;2022-10-19T10:05:28;18.50;;;15.93;;
30472;SDS011;17263;48.160;11.452;2022-10-19T10:08:12;16.87;;;15.13;;
30472;SDS011;17263;48.160;11.452;2022-10-19T10:10:42;15.90;;;14.40;;
30472;SDS011;17263;48.160;11.452;2022-10-19T10:13:15;16.97;;;14.27;;
30472;SDS011;17263;48.160;11.452;2022-10-19T10:15:43;16.73;;;14.73;;
30472;SDS011;17263;48.160;11.452;2022-10-19T10:18:14;17.50;;;15.63;;
30472;SDS011;17263;48.160;11.452;2022-10-19T10:21:03;16.17;;;14.47;;
30472;SDS011;17263;48.160;11.452;2022-10-19T10:23:35;14.33;;;12.83;;
30472;SDS011;17263;48.160;11.452;2022-10-19T10:26:02;15.53;;;12.67;;
30472;SDS011;17263;48.160;11.452;2022-10-19T10:28:30;15.37;;;13.57;;
30472;SDS011;17263;48.160;11.452;2022-10-19T10:31:03;13.87;;;12.33;;
30472;SDS011;17263;48.160;11.452;2022-10-19T10:33:32;15.03;;;12.77;;
30472;SDS011;17263;48.160;11.452;2022-10-19T10:36:06;14.17;;;12.53;;
30472;SDS011;17263;48.160;11.452;2022-10-19T10:38:35;12.73;;;11.37;;
30472;SDS011;17263;48.160;11.452;2022-10-19T10:41:08;17.97;;;11.60;;
30472;SDS011;17263;48.160;11.452;2022-10-19T10:43:49;11.30;;;10.03;;
30472;SDS011;17263;48.160;11.452;2022-10-19T10:46:23;11.53;;;10.33;;
30472;SDS011;17263;48.160;11.452;2022-10-19T10:48:54;10.60;;;9.50;;
30472;SDS011;17263;48.160;11.452;2022-10-19T10:59:25;13.23;;;9.80;;
30472;SDS011;17263;48.160;11.452;2022-10-19T11:02:01;9.73;;;8.73;;
30472;SDS011;17263;48.160;11.452;2022-10-19T11:04:38;9.70;;;8.70;;
30472;SDS011;17263;48.160;11.452;2022-10-19T11:07:14;9.83;;;8.83;;
30472;SDS011;17263;48.160;11.452;2022-10-19T11:09:45;9.57;;;8.50;;
30472;SDS011;17263;48.160;11.452;2022-10-19T11:12:20;9.43;;;8.53;;
30472;SDS011;17263;48.160;11.452;2022-10-19T11:15:11;9.47;;;8.67;;
30472;SDS011;17263;48.160;11.452;2022-10-19T11:18:15;11.17;;;8.10;;
30472;SDS011;17263;48.160;11.452;2022-10-19T11:23:59;9.97;;;8.37;;
30472;SDS011;17263;48.160;11.452;2022-10-19T11:26:40;12.10;;;7.73;;
30472;SDS011;17263;48.160;11.452;2022-10-19T11:29:41;9.47;;;8.57;;
30472;SDS011;17263;48.160;11.452;2022-10-19T11:43:37;7.40;;;6.70;;
30472;SDS011;17263;48.160;11.452;2022-10-19T11:46:33;7.40;;;6.70;;
30472;SDS011;17263;48.160;11.452;2022-10-19T11:51:54;5.90;;;5.40;;
30472;SDS011;17263;48.160;11.452;2022-10-19T11:54:43;5.50;;;5.00;;
30472;SDS011;17263;48.160;11.452;2022-10-19T11:57:33;5.70;;;5.03;;
30472;SDS011;17263;48.160;11.452;2022-10-19T12:00:16;5.60;;;5.10;;
30472;SDS011;17263;48.160;11.452;2022-10-19T12:05:37;8.03;;;5.43;;
30472;SDS011;17263;48.160;11.452;2022-10-19T12:10:55;6.90;;;5.53;;
30472;SDS011;17263;48.160;11.452;2022-10-19T12:13:45;6.13;;;5.53;;
30472;SDS011;17263;48.160;11.452;2022-10-19T12:16:17;6.13;;;5.50;;
30472;SDS011;17263;48.160;11.452;2022-10-19T12:18:49;5.97;;;5.47;;
30472;SDS011;17263;48.160;11.452;2022-10-19T12:21:33;6.20;;;5.63;;
30472;SDS011;17263;48.160;11.452;2022-10-19T12:24:02;5.67;;;5.17;;
30472;SDS011;17263;48.160;11.452;2022-10-19T12:26:35;5.87;;;5.10;;
30472;SDS011;17263;48.160;11.452;2022-10-19T12:29:05;5.43;;;4.93;;
30472;SDS011;17263;48.160;11.452;2022-10-19T12:31:39;5.77;;;5.17;;
30472;SDS011;17263;48.160;11.452;2022-10-19T12:42:47;6.17;;;5.37;;
30472;SDS011;17263;48.160;11.452;2022-10-19T12:53:31;5.53;;;5.03;;
30472;SDS011;17263;48.160;11.452;2022-10-19T13:01:19;5.23;;;4.73;;
30472;SDS011;17263;48.160;11.452;2022-10-19T13:04:05;5.20;;;4.70;;
30472;SDS011;17263;48.160;11.452;2022-10-19T13:09:22;7.27;;;4.60;;
30472;SDS011;17263;48.160;11.452;2022-10-19T13:14:51;4.43;;;3.70;;
30472;SDS011;17263;48.160;11.452;2022-10-19T13:22:44;5.37;;;4.33;;
30472;SDS011;17263;48.160;11.452;2022-10-19T13:27:48;5.47;;;4.97;;
30472;SDS011;17263;48.160;11.452;2022-10-19T13:33:54;4.63;;;4.13;;
30472;SDS011;17263;48.160;11.452;2022-10-19T13:43:36;5.80;;;5.30;;
30472;SDS011;17263;48.160;11.452;2022-10-19T13:46:13;5.47;;;5.07;;
30472;SDS011;17263;48.160;11.452;2022-10-19T13:48:57;5.83;;;5.33;;
30472;SDS011;17263;48.160;11.452;2022-10-19T14:11:02;6.63;;;5.03;;
30472;SDS011;17263;48.160;11.452;2022-10-19T14:16:47;6.00;;;5.50;;
30472;SDS011;17263;48.160;11.452;2022-10-19T14:19:28;6.10;;;4.80;;
30472;SDS011;17263;48.160;11.452;2022-10-19T14:21:57;5.90;;;5.30;;
30472;SDS011;17263;48.160;11.452;2022-10-19T14:24:27;5.83;;;5.23;;
30472;SDS011;17263;48.160;11.452;2022-10-19T14:26:53;5.73;;;5.17;;
30472;SDS011;17263;48.160;11.452;2022-10-19T14:29:20;6.97;;;5.80;;
30472;SDS011;17263;48.160;11.452;2022-10-19T14:31:46;8.03;;;5.73;;
30472;SDS011;17263;48.160;11.452;2022-10-19T14:34:12;8.17;;;5.27;;
30472;SDS011;17263;48.160;11.452;2022-10-19T14:36:42;6.33;;;5.83;;
30472;SDS011;17263;48.160;11.452;2022-10-19T14:39:23;5.70;;;5.20;;
30472;SDS011;17263;48.160;11.452;2022-10-19T14:42:02;5.67;;;5.17;;
30472;SDS011;17263;48.160;11.452;2022-10-19T14:44:34;5.37;;;4.87;;
30472;SDS011;17263;48.160;11.452;2022-10-19T14:47:17;6.20;;;5.37;;
30472;SDS011;17263;48.160;11.452;2022-10-19T14:49:48;6.57;;;5.80;;
30472;SDS011;17263;48.160;11.452;2022-10-19T14:52:26;5.43;;;4.93;;
30472;SDS011;17263;48.160;11.452;2022-10-19T14:55:00;6.47;;;5.53;;
30472;SDS011;17263;48.160;11.452;2022-10-19T14:57:34;6.70;;;6.00;;
30472;SDS011;17263;48.160;11.452;2022-10-19T15:00:05;6.53;;;5.47;;
30472;SDS011;17263;48.160;11.452;2022-10-19T15:02:40;6.77;;;6.13;;
30472;SDS011;17263;48.160;11.452;2022-10-19T15:05:21;9.47;;;6.90;;
30472;SDS011;17263;48.160;11.452;2022-10-19T15:07:51;7.13;;;6.33;;
30472;SDS011;17263;48.160;11.452;2022-10-19T15:12:50;7.50;;;6.80;;
30472;SDS011;17263;48.160;11.452;2022-10-19T15:15:26;8.83;;;7.07;;
30472;SDS011;17263;48.160;11.452;2022-10-19T15:20:33;8.93;;;6.83;;
30472;SDS011;17263;48.160;11.452;2022-10-19T15:25:59;7.17;;;6.37;;
30472;SDS011;17263;48.160;11.452;2022-10-19T15:28:34;7.33;;;6.63;;
30472;SDS011;17263;48.160;11.452;2022-10-19T15:31:06;6.97;;;6.37;;
30472;SDS011;17263;48.160;11.452;2022-10-19T15:33:54;6.53;;;5.93;;
30472;SDS011;17263;48.160;11.452;2022-10-19T15:36:25;7.80;;;7.07;;
30472;SDS011;17263;48.160;11.452;2022-10-19T15:41:40;8.87;;;6.77;;
30472;SDS011;17263;48.160;11.452;2022-10-19T15:44:27;7.83;;;6.30;;
30472;SDS011;17263;48.160;11.452;2022-10-19T15:52:17;6.50;;;5.90;;
30472;SDS011;17263;48.160;11.452;2022-10-19T15:54:46;5.77;;;5.27;;
30472;SDS011;17263;48.160;11.452;2022-10-19T15:57:46;7.03;;;6.33;;
30472;SDS011;17263;48.160;11.452;2022-10-19T16:00:09;7.20;;;6.20;;
30472;SDS011;17263;48.160;11.452;2022-10-19T16:02:37;6.57;;;5.50;;
30472;SDS011;17263;48.160;11.452;2022-10-19T16:05:03;6.03;;;5.53;;
30472;SDS011;17263;48.160;11.452;2022-10-19T16:07:31;6.03;;;5.43;;
30472;SDS011;17263;48.160;11.452;2022-10-19T16:09:58;8.57;;;5.93;;
30472;SDS011;17263;48.160;11.452;2022-10-19T16:12:24;6.27;;;5.67;;
30472;SDS011;17263;48.160;11.452;2022-10-19T16:14:51;5.40;;;5.00;;
30472;SDS011;17263;48.160;11.452;2022-10-19T16:17:18;6.50;;;5.40;;
30472;SDS011;17263;48.160;11.452;2022-10-19T16:19:44;7.80;;;5.53;;
30472;SDS011;17263;48.160;11.452;2022-10-19T16:22:10;5.50;;;5.00;;
30472;SDS011;17263;48.160;11.452;2022-10-19T16:24:38;5.90;;;5.13;;
30472;SDS011;17263;48.160;11.452;2022-10-19T16:27:05;5.80;;;5.20;;
30472;SDS011;17263;48.160;11.452;2022-10-19T16:29:32;6.30;;;4.63;;
30472;SDS011;17263;48.160;11.452;2022-10-19T16:31:58;5.30;;;4.57;;
30472;SDS011;17263;48.160;11.452;2022-10-19T16:34:24;5.17;;;4.67;;
30472;SDS011;17263;48.160;11.452;2022-10-19T16:36:50;6.93;;;5.97;;
30472;SDS011;17263;48.160;11.452;2022-10-19T16:39:16;6.17;;;4.83;;
30472;SDS011;17263;48.160;11.452;2022-10-19T16:41:42;6.63;;;4.87;;
30472;SDS011;17263;48.160;11.452;2022-10-19T16:44:09;8.37;;;4.77;;
30472;SDS011;17263;48.160;11.452;2022-10-19T16:46:36;5.17;;;4.50;;
30472;SDS011;17263;48.160;11.452;2022-10-19T16:49:03;5.60;;;5.00;;
30472;SDS011;17263;48.160;11.452;2022-10-19T16:51:39;6.70;;;5.00;;
30472;SDS011;17263;48.160;11.452;2022-10-19T16:54:06;5.63;;;4.77;;
30472;SDS011;17263;48.160;11.452;2022-10-19T16:56:34;8.50;;;5.77;;
30472;SDS011;17263;48.160;11.452;2022-10-19T16:59:03;8.30;;;6.10;;
30472;SDS011;17263;48.160;11.452;2022-10-19T17:01:31;6.33;;;5.37;;
30472;SDS011;17263;48.160;11.452;2022-10-19T17:03:58;6.30;;;5.60;;
30472;SDS011;17263;48.160;11.452;2022-10-19T17:06:24;5.70;;;5.20;;
30472;SDS011;17263;48.160;11.452;2022-10-19T17:08:51;6.23;;;5.57;;
30472;SDS011;17263;48.160;11.452;2022-10-19T17:11:20;6.27;;;5.67;;
30472;SDS011;17263;48.160;11.452;2022-10-19T17:13:48;6.80;;;5.93;;
30472;SDS011;17263;48.160;11.452;2022-10-19T17:16:16;6.23;;;5.73;;
30472;SDS011;17263;48.160;11.452;2022-10-19T17:18:43;5.70;;;5.20;;
30472;SDS011;17263;48.160;11.452;2022-10-19T17:21:17;6.07;;;5.57;;